Terminal Aerodrome Forecast
Issued by NWS

Home | Current Version | Previous Version | Text Only | Print | Product List | Glossary On
Versions: 1 2 3 4 5 6 7 8 9 10 11 12 13 14 15 16 17
000
FTUS43 KFGF 272300
TAFTVF
TAF
KTVF 272334Z 2800/2824 15010KT P6SM BKN150
     FM280200 15010KT 6SM BR OVC006
     FM281100 11007KT 2SM BR OVC004
     FM281800 VRB06KT 4SM BR OVC007
     FM282100 32011KT P6SM OVC015
      AMD LTD TO CLD VIS AND WIND=

USA.gov is the U.S. government's official web portal to all federal, state and local government web resources and services.